Time;durP1;ratioP1;P1;durP2;ratioP2;P2;SDS_P1;SDS_P2;PMS_P1;PMS_P2;Temp;Humidity;BMP_temperature;BMP_pressure;BME280_temperature;BME280_humidity;BME280_pressure;Samples;Min_cycle;Max_cycle;Signal;HPM_P1;HPM_P2
2024/03/28 00:00:30;;;;;;;4.25;3.00;;;;;;;;;;4935155;29;20102;-75
2024/03/28 00:02:56;;;;;;;4.45;3.10;;;;;;;;;;4966447;28;20081;-75
2024/03/28 00:05:21;;;;;;;5.10;3.03;;;;;;;;;;4936939;28;20504;-75
2024/03/28 00:07:46;;;;;;;5.57;3.25;;;;;;;;;;4969502;28;20068;-75
2024/03/28 00:10:12;;;;;;;4.78;2.90;;;;;;;;;;4952776;28;20023;-75
2024/03/28 00:12:37;;;;;;;3.85;2.70;;;;;;;;;;4965292;28;20039;-75
2024/03/28 00:15:03;;;;;;;4.78;3.10;;;;;;;;;;4936471;28;20035;-75
2024/03/28 00:17:28;;;;;;;6.03;3.00;;;;;;;;;;4965805;28;20492;-75
2024/03/28 00:19:53;;;;;;;5.35;3.22;;;;;;;;;;4945552;28;20054;-75
2024/03/28 00:22:19;;;;;;;4.55;2.80;;;;;;;;;;4970091;28;20076;-75
2024/03/28 00:24:44;;;;;;;6.35;3.60;;;;;;;;;;4968050;28;20027;-75
2024/03/28 00:27:09;;;;;;;4.20;2.80;;;;;;;;;;4962911;28;20141;-75
2024/03/28 00:29:34;;;;;;;4.97;3.42;;;;;;;;;;4967048;28;20042;-75
2024/03/28 00:32:00;;;;;;;4.63;3.20;;;;;;;;;;4969490;28;20058;-76
2024/03/28 00:34:26;;;;;;;7.13;3.10;;;;;;;;;;4969654;28;20035;-76
2024/03/28 00:36:51;;;;;;;6.20;3.25;;;;;;;;;;4968320;28;20113;-76
2024/03/28 00:39:17;;;;;;;5.10;3.15;;;;;;;;;;4950785;28;20155;-75
2024/03/28 00:41:42;;;;;;;4.50;3.17;;;;;;;;;;4951914;28;21062;-75
2024/03/28 00:44:08;;;;;;;5.13;2.95;;;;;;;;;;4966507;28;20045;-75
2024/03/28 00:46:33;;;;;;;5.38;3.35;;;;;;;;;;4968185;28;20037;-75
2024/03/28 00:48:58;;;;;;;5.47;3.35;;;;;;;;;;4935599;28;20039;-75
2024/03/28 00:51:23;;;;;;;5.40;3.20;;;;;;;;;;4952282;28;20145;-75
2024/03/28 00:53:49;;;;;;;4.85;3.10;;;;;;;;;;4968053;28;20039;-75
2024/03/28 00:56:14;;;;;;;4.93;3.58;;;;;;;;;;4969221;28;20121;-75
2024/03/28 00:58:39;;;;;;;4.15;3.05;;;;;;;;;;4955642;28;20042;-76
2024/03/28 01:01:05;;;;;;;6.10;3.45;;;;;;;;;;4961658;28;20035;-76
2024/03/28 01:03:30;;;;;;;5.85;3.10;;;;;;;;;;4939108;28;20151;-75
2024/03/28 01:05:58;;;;;;;6.32;3.30;;;;;;;;;;4971943;28;20042;-75
2024/03/28 01:08:25;;;;;;;4.80;3.28;;;;;;;;;;4972443;28;20054;-76
2024/03/28 01:10:50;;;;;;;6.75;3.67;;;;;;;;;;4960712;28;20097;-75
2024/03/28 01:13:15;;;;;;;4.75;3.25;;;;;;;;;;4955853;28;20471;-75
2024/03/28 01:15:40;;;;;;;5.38;3.00;;;;;;;;;;4964890;28;20109;-74
2024/03/28 01:18:07;;;;;;;5.38;3.53;;;;;;;;;;4955511;28;20582;-77
2024/03/28 01:20:32;;;;;;;6.03;3.45;;;;;;;;;;4972252;28;20090;-78
2024/03/28 01:22:57;;;;;;;5.35;3.55;;;;;;;;;;4953535;28;20043;-76
2024/03/28 01:25:23;;;;;;;4.70;3.15;;;;;;;;;;4963208;28;20121;-75
2024/03/28 01:27:49;;;;;;;4.65;3.55;;;;;;;;;;4971417;28;20049;-76
2024/03/28 01:30:14;;;;;;;4.68;3.10;;;;;;;;;;4968610;28;20046;-75
2024/03/28 01:32:40;;;;;;;5.47;3.05;;;;;;;;;;4953609;28;20126;-76
2024/03/28 01:35:05;;;;;;;5.28;3.20;;;;;;;;;;4954629;28;20054;-76
2024/03/28 01:37:30;;;;;;;5.93;3.38;;;;;;;;;;4970885;28;20090;-75
2024/03/28 01:39:56;;;;;;;6.40;3.17;;;;;;;;;;4971387;28;20077;-75
2024/03/28 01:42:21;;;;;;;4.50;3.33;;;;;;;;;;4970012;28;20043;-75
2024/03/28 01:44:47;;;;;;;4.82;3.20;;;;;;;;;;4967577;28;20109;-75
2024/03/28 01:47:13;;;;;;;4.85;3.00;;;;;;;;;;4963012;28;20038;-75
2024/03/28 01:49:38;;;;;;;4.65;3.10;;;;;;;;;;4960623;28;20058;-75
2024/03/28 01:52:04;;;;;;;4.57;3.03;;;;;;;;;;4953652;28;20038;-75
2024/03/28 01:54:29;;;;;;;4.50;2.88;;;;;;;;;;4954159;28;20413;-75
2024/03/28 01:56:55;;;;;;;4.80;3.35;;;;;;;;;;4970037;28;20508;-75
2024/03/28 01:59:20;;;;;;;4.40;3.38;;;;;;;;;;4971002;28;20555;-75
2024/03/28 02:01:45;;;;;;;4.45;3.40;;;;;;;;;;4969984;28;20042;-75
2024/03/28 02:04:11;;;;;;;4.97;3.13;;;;;;;;;;4968196;28;20043;-76
2024/03/28 02:06:36;;;;;;;4.82;3.13;;;;;;;;;;4953015;28;20546;-75
2024/03/28 02:09:02;;;;;;;6.15;3.40;;;;;;;;;;4934217;29;20476;-76
2024/03/28 02:11:27;;;;;;;3.97;3.17;;;;;;;;;;4961642;28;20448;-76
2024/03/28 02:13:53;;;;;;;6.20;3.58;;;;;;;;;;4969353;28;20101;-76
2024/03/28 02:16:18;;;;;;;4.07;3.00;;;;;;;;;;4974005;28;20500;-76
2024/03/28 02:18:43;;;;;;;5.25;3.28;;;;;;;;;;4969735;28;20045;-76
2024/03/28 02:21:09;;;;;;;4.43;3.30;;;;;;;;;;4969305;28;20100;-76
2024/03/28 02:23:34;;;;;;;4.68;3.22;;;;;;;;;;4969068;28;20057;-76
2024/03/28 02:25:59;;;;;;;6.32;3.17;;;;;;;;;;4953066;28;20039;-76
2024/03/28 02:28:25;;;;;;;4.43;3.40;;;;;;;;;;4969785;28;20126;-76
2024/03/28 02:30:50;;;;;;;4.88;3.50;;;;;;;;;;4968394;28;20495;-76
2024/03/28 02:33:15;;;;;;;4.32;3.33;;;;;;;;;;4970809;28;20038;-76
2024/03/28 02:35:41;;;;;;;4.80;3.22;;;;;;;;;;4971387;28;20101;-75
2024/03/28 02:38:06;;;;;;;4.30;3.40;;;;;;;;;;4969429;28;20488;-74
2024/03/28 02:40:31;;;;;;;4.75;3.40;;;;;;;;;;4968545;28;20049;-74
2024/03/28 02:42:57;;;;;;;5.53;3.60;;;;;;;;;;4952612;28;20053;-74
2024/03/28 02:45:22;;;;;;;4.07;3.25;;;;;;;;;;4969916;28;20065;-75
2024/03/28 02:47:48;;;;;;;5.22;3.50;;;;;;;;;;4970131;28;20397;-75
2024/03/28 02:50:13;;;;;;;5.60;3.55;;;;;;;;;;4970879;28;20062;-75
2024/03/28 02:52:39;;;;;;;5.30;3.60;;;;;;;;;;4935595;29;20055;-75
2024/03/28 02:55:04;;;;;;;6.93;3.03;;;;;;;;;;4948838;29;20047;-75
2024/03/28 02:57:30;;;;;;;4.90;3.28;;;;;;;;;;4968979;28;20050;-75
2024/03/28 02:59:55;;;;;;;4.93;3.40;;;;;;;;;;4970595;28;20066;-75
2024/03/28 03:02:20;;;;;;;4.40;3.22;;;;;;;;;;4962514;28;20125;-75
2024/03/28 03:04:46;;;;;;;4.55;3.20;;;;;;;;;;4950091;28;20035;-75
2024/03/28 03:07:11;;;;;;;6.10;3.83;;;;;;;;;;4953101;28;20046;-75
2024/03/28 03:09:36;;;;;;;6.65;3.50;;;;;;;;;;4952278;28;20053;-75
2024/03/28 03:12:02;;;;;;;5.25;3.17;;;;;;;;;;4970206;28;20027;-75
2024/03/28 03:14:28;;;;;;;5.63;3.47;;;;;;;;;;4969790;28;20045;-75
2024/03/28 03:16:53;;;;;;;5.38;3.33;;;;;;;;;;4952900;28;20090;-75
2024/03/28 03:19:18;;;;;;;5.20;3.45;;;;;;;;;;4969556;28;20165;-75
2024/03/28 03:21:46;;;;;;;4.88;3.30;;;;;;;;;;4971093;28;20079;-75
2024/03/28 03:24:13;;;;;;;3.83;3.22;;;;;;;;;;4942974;28;20042;-75
2024/03/28 03:26:38;;;;;;;4.95;3.38;;;;;;;;;;4969486;28;20384;-75
2024/03/28 03:34:37;;;;;;;4.93;3.33;;;;;;;;;;4969868;28;20038;-75
2024/03/28 03:37:09;;;;;;;5.40;3.60;;;;;;;;;;4952783;28;20633;-75
2024/03/28 03:39:34;;;;;;;4.60;3.38;;;;;;;;;;4968156;28;20039;-75
2024/03/28 03:41:59;;;;;;;6.85;3.70;;;;;;;;;;4955776;28;20140;-74
2024/03/28 03:44:25;;;;;;;4.78;3.28;;;;;;;;;;4942726;28;20417;-75
2024/03/28 03:46:50;;;;;;;5.07;3.22;;;;;;;;;;4950219;28;20081;-74
2024/03/28 03:49:16;;;;;;;5.65;3.60;;;;;;;;;;4968618;28;20039;-74
2024/03/28 03:51:41;;;;;;;4.47;3.35;;;;;;;;;;4963738;28;20106;-71
2024/03/28 03:54:06;;;;;;;5.07;3.20;;;;;;;;;;4948260;28;20046;-73
2024/03/28 03:56:32;;;;;;;4.60;2.85;;;;;;;;;;4938626;28;20090;-72
2024/03/28 03:58:57;;;;;;;4.07;3.08;;;;;;;;;;4955682;28;20366;-72
2024/03/28 04:01:23;;;;;;;4.22;3.35;;;;;;;;;;4940145;28;20039;-72
2024/03/28 04:03:48;;;;;;;6.38;3.50;;;;;;;;;;4939166;28;20038;-75
2024/03/28 04:06:13;;;;;;;5.22;3.25;;;;;;;;;;4924266;28;20516;-72
2024/03/28 04:08:39;;;;;;;7.07;3.42;;;;;;;;;;4957835;28;20100;-72
2024/03/28 04:11:05;;;;;;;5.13;3.20;;;;;;;;;;4956438;28;20523;-73
2024/03/28 04:13:31;;;;;;;4.43;2.97;;;;;;;;;;4956618;28;20038;-76
2024/03/28 04:15:56;;;;;;;4.95;3.25;;;;;;;;;;4940052;28;20046;-73
2024/03/28 04:18:21;;;;;;;6.25;3.30;;;;;;;;;;4955596;28;20199;-73
2024/03/28 04:20:46;;;;;;;5.47;2.95;;;;;;;;;;4956112;28;20051;-72
2024/03/28 04:23:12;;;;;;;4.68;2.90;;;;;;;;;;4954584;28;20039;-73
2024/03/28 04:25:37;;;;;;;5.13;2.92;;;;;;;;;;4937315;28;20149;-78
2024/03/28 04:28:03;;;;;;;6.78;2.92;;;;;;;;;;4939356;28;20120;-77
2024/03/28 04:30:32;;;;;;;4.95;3.17;;;;;;;;;;4930860;28;20417;-76
2024/03/28 04:32:58;;;;;;;6.37;3.27;;;;;;;;;;4944355;28;20132;-76
2024/03/28 04:35:23;;;;;;;5.05;3.03;;;;;;;;;;4942550;28;20571;-75
2024/03/28 04:37:49;;;;;;;5.65;2.95;;;;;;;;;;4959725;28;20134;-76
2024/03/28 04:40:14;;;;;;;4.63;2.75;;;;;;;;;;4959526;28;20031;-75
2024/03/28 04:42:40;;;;;;;5.70;2.92;;;;;;;;;;4959729;28;20618;-75
2024/03/28 04:45:05;;;;;;;6.50;3.13;;;;;;;;;;4943153;28;20026;-76
2024/03/28 04:47:31;;;;;;;4.82;3.00;;;;;;;;;;4926838;28;20042;-76
2024/03/28 04:49:56;;;;;;;4.43;2.95;;;;;;;;;;4941772;28;20125;-76
2024/03/28 04:52:23;;;;;;;4.88;3.08;;;;;;;;;;4925580;28;20042;-85
2024/03/28 04:54:48;;;;;;;4.63;2.80;;;;;;;;;;4958910;28;20039;-77
2024/03/28 04:57:14;;;;;;;4.28;2.67;;;;;;;;;;4961006;28;20043;-77
2024/03/28 04:59:39;;;;;;;4.00;2.70;;;;;;;;;;4960314;28;20089;-75
2024/03/28 05:02:05;;;;;;;5.05;2.90;;;;;;;;;;4943524;28;20077;-74
2024/03/28 05:04:30;;;;;;;5.85;3.03;;;;;;;;;;4958448;28;20269;-75
2024/03/28 05:06:55;;;;;;;4.70;3.03;;;;;;;;;;4954884;28;20050;-75
2024/03/28 05:09:21;;;;;;;7.13;2.60;;;;;;;;;;4950059;28;20039;-74
2024/03/28 05:11:46;;;;;;;6.50;3.00;;;;;;;;;;4925885;28;20050;-73
2024/03/28 05:14:11;;;;;;;4.78;2.80;;;;;;;;;;4961873;28;20063;-71
2024/03/28 05:16:38;;;;;;;4.43;2.70;;;;;;;;;;4959476;28;20042;-77
2024/03/28 05:19:03;;;;;;;5.60;2.90;;;;;;;;;;4960062;28;20121;-75
2024/03/28 05:21:30;;;;;;;4.18;2.75;;;;;;;;;;4947235;28;20062;-76
2024/03/28 05:23:55;;;;;;;4.65;2.90;;;;;;;;;;4960094;28;20057;-75
2024/03/28 05:26:21;;;;;;;3.95;2.60;;;;;;;;;;4940386;28;20036;-75
2024/03/28 05:28:46;;;;;;;4.20;2.50;;;;;;;;;;4946086;28;20525;-75
2024/03/28 05:31:15;;;;;;;3.83;2.78;;;;;;;;;;4968787;28;20105;-74
2024/03/28 05:33:41;;;;;;;5.03;2.63;;;;;;;;;;4957836;28;20035;-74
2024/03/28 05:36:06;;;;;;;6.47;2.55;;;;;;;;;;4959250;28;20043;-74
2024/03/28 05:38:31;;;;;;;3.67;2.50;;;;;;;;;;4960680;28;20042;-75
2024/03/28 05:40:57;;;;;;;4.22;2.88;;;;;;;;;;4945794;28;20062;-75
2024/03/28 05:43:22;;;;;;;4.45;2.80;;;;;;;;;;4962095;28;20388;-76
2024/03/28 05:45:47;;;;;;;5.32;2.60;;;;;;;;;;4962952;28;20042;-75
2024/03/28 05:48:13;;;;;;;5.72;2.70;;;;;;;;;;4964834;28;20543;-74
2024/03/28 05:50:38;;;;;;;4.75;2.55;;;;;;;;;;4969388;28;20054;-76
2024/03/28 05:53:03;;;;;;;5.88;2.88;;;;;;;;;;4962292;28;20049;-72
2024/03/28 05:55:29;;;;;;;5.00;3.10;;;;;;;;;;4959900;28;20606;-74
2024/03/28 05:57:54;;;;;;;5.80;2.80;;;;;;;;;;4957023;28;20137;-74
2024/03/28 06:00:19;;;;;;;4.53;2.78;;;;;;;;;;4961746;28;20050;-74
2024/03/28 06:02:45;;;;;;;4.22;2.88;;;;;;;;;;4937925;28;20038;-74
2024/03/28 06:05:10;;;;;;;4.25;2.75;;;;;;;;;;4947342;28;20031;-75
2024/03/28 06:07:35;;;;;;;6.45;2.83;;;;;;;;;;4927275;29;20058;-75
2024/03/28 06:10:01;;;;;;;4.15;2.78;;;;;;;;;;4941937;28;20039;-76
2024/03/28 06:12:26;;;;;;;4.68;3.22;;;;;;;;;;4940050;29;20048;-74
2024/03/28 06:14:51;;;;;;;5.88;3.10;;;;;;;;;;4957399;28;20062;-76
2024/03/28 06:17:17;;;;;;;4.35;2.75;;;;;;;;;;4970325;28;20046;-76
2024/03/28 06:19:42;;;;;;;7.25;3.22;;;;;;;;;;4950091;28;20038;-76
2024/03/28 06:22:07;;;;;;;4.25;2.40;;;;;;;;;;4958932;28;20035;-75
2024/03/28 06:24:33;;;;;;;5.03;2.80;;;;;;;;;;4958884;28;20134;-77
2024/03/28 06:26:58;;;;;;;6.15;2.97;;;;;;;;;;4941544;28;21583;-76
2024/03/28 06:29:24;;;;;;;5.00;2.80;;;;;;;;;;4957970;28;20602;-76
2024/03/28 06:31:51;;;;;;;4.38;2.60;;;;;;;;;;4957513;28;20039;-76
2024/03/28 06:34:16;;;;;;;6.35;2.88;;;;;;;;;;4942651;28;20096;-76
2024/03/28 06:36:41;;;;;;;7.20;2.78;;;;;;;;;;4959305;28;20032;-76
2024/03/28 06:39:08;;;;;;;5.45;2.50;;;;;;;;;;4925569;28;20031;-76
2024/03/28 06:41:34;;;;;;;5.80;2.78;;;;;;;;;;4956930;28;20504;-76
2024/03/28 06:43:59;;;;;;;4.82;2.50;;;;;;;;;;4957462;28;20045;-75
2024/03/28 06:46:24;;;;;;;4.28;2.60;;;;;;;;;;4959155;28;20034;-76
2024/03/28 06:48:50;;;;;;;8.10;2.95;;;;;;;;;;4956271;28;20043;-75
2024/03/28 06:51:15;;;;;;;5.03;2.47;;;;;;;;;;4960222;28;20166;-75
2024/03/28 06:53:40;;;;;;;4.05;2.70;;;;;;;;;;4957850;28;20182;-75
2024/03/28 06:56:06;;;;;;;4.07;2.67;;;;;;;;;;4960045;28;20039;-75
2024/03/28 06:58:31;;;;;;;4.40;2.42;;;;;;;;;;4939238;28;20054;-75
2024/03/28 07:00:57;;;;;;;5.85;2.83;;;;;;;;;;4939719;28;20218;-75
2024/03/28 07:03:22;;;;;;;6.47;2.90;;;;;;;;;;4941335;28;20507;-75
2024/03/28 07:05:48;;;;;;;4.88;2.28;;;;;;;;;;4958015;28;20035;-76
2024/03/28 07:08:14;;;;;;;4.75;2.50;;;;;;;;;;4956937;28;20070;-76
2024/03/28 07:10:39;;;;;;;4.80;2.45;;;;;;;;;;4938716;28;20645;-76
2024/03/28 07:13:05;;;;;;;4.28;2.50;;;;;;;;;;4957446;28;20043;-77
2024/03/28 07:15:30;;;;;;;4.65;2.78;;;;;;;;;;4934938;28;20549;-77
2024/03/28 07:17:56;;;;;;;4.55;2.80;;;;;;;;;;4921334;29;20481;-75
2024/03/28 07:20:21;;;;;;;5.93;2.80;;;;;;;;;;4953798;28;20500;-75
2024/03/28 07:22:46;;;;;;;4.25;2.63;;;;;;;;;;4964240;28;20038;-74
2024/03/28 07:25:11;;;;;;;5.35;2.63;;;;;;;;;;4944537;28;20050;-76
2024/03/28 07:27:37;;;;;;;4.15;2.70;;;;;;;;;;4941897;28;20043;-75
2024/03/28 07:30:03;;;;;;;3.83;2.33;;;;;;;;;;4941562;28;20407;-76
2024/03/28 07:32:28;;;;;;;4.82;2.67;;;;;;;;;;4957359;28;20046;-76
2024/03/28 07:34:53;;;;;;;5.25;2.95;;;;;;;;;;4955736;28;20403;-77
2024/03/28 07:37:19;;;;;;;4.70;2.65;;;;;;;;;;4960234;28;20590;-75
2024/03/28 07:39:44;;;;;;;5.43;2.70;;;;;;;;;;4945537;28;20089;-75
2024/03/28 07:42:10;;;;;;;5.10;2.53;;;;;;;;;;4937487;28;20043;-75
2024/03/28 07:44:35;;;;;;;5.40;2.75;;;;;;;;;;4957532;28;20567;-76
2024/03/28 07:47:01;;;;;;;4.95;2.88;;;;;;;;;;4937993;28;20039;-75
2024/03/28 07:49:26;;;;;;;5.63;2.40;;;;;;;;;;4920996;29;20090;-76
2024/03/28 07:51:52;;;;;;;4.90;2.30;;;;;;;;;;4921006;29;20525;-75
2024/03/28 07:54:17;;;;;;;5.35;2.33;;;;;;;;;;4948967;28;20159;-75
2024/03/28 07:56:43;;;;;;;4.53;2.17;;;;;;;;;;4941694;28;20066;-76
2024/03/28 07:59:08;;;;;;;4.68;2.50;;;;;;;;;;4957396;28;20066;-76
2024/03/28 08:01:35;;;;;;;5.00;2.42;;;;;;;;;;4932984;28;20035;-76
2024/03/28 08:04:01;;;;;;;3.92;2.35;;;;;;;;;;4957587;28;20061;-75
2024/03/28 08:06:27;;;;;;;4.45;2.38;;;;;;;;;;4959670;28;20035;-75
2024/03/28 08:08:52;;;;;;;4.63;2.17;;;;;;;;;;4959899;28;20053;-75
2024/03/28 08:11:17;;;;;;;5.43;2.50;;;;;;;;;;4943948;28;20042;-75
2024/03/28 08:13:43;;;;;;;3.47;2.00;;;;;;;;;;4940310;29;20047;-75
2024/03/28 08:16:09;;;;;;;5.05;2.40;;;;;;;;;;4923366;29;20039;-75
2024/03/28 08:18:34;;;;;;;5.40;2.42;;;;;;;;;;4942467;28;20143;-76
2024/03/28 08:21:00;;;;;;;3.88;2.28;;;;;;;;;;4942414;28;20050;-75
2024/03/28 08:23:25;;;;;;;4.45;2.20;;;;;;;;;;4926135;29;20035;-75
2024/03/28 08:25:50;;;;;;;4.40;2.47;;;;;;;;;;4954626;28;20565;-75
2024/03/28 08:28:18;;;;;;;4.63;2.28;;;;;;;;;;4943125;28;20199;-76
2024/03/28 08:30:43;;;;;;;4.93;2.30;;;;;;;;;;4926575;28;20027;-76
2024/03/28 08:33:08;;;;;;;4.93;2.00;;;;;;;;;;4926900;28;20043;-76
2024/03/28 08:35:40;;;;;;;4.30;2.08;;;;;;;;;;4950417;28;20034;-77
2024/03/28 08:38:07;;;;;;;3.92;2.33;;;;;;;;;;4943179;28;20133;-76
2024/03/28 08:40:33;;;;;;;4.20;2.05;;;;;;;;;;4944766;28;20181;-76
2024/03/28 08:42:58;;;;;;;4.43;1.80;;;;;;;;;;4970479;28;20097;-76
2024/03/28 08:45:24;;;;;;;4.93;2.38;;;;;;;;;;4955708;28;20042;-76
2024/03/28 08:47:50;;;;;;;4.15;2.00;;;;;;;;;;4970328;28;20138;-76
2024/03/28 08:50:15;;;;;;;3.55;2.00;;;;;;;;;;4972361;28;20053;-76
2024/03/28 08:52:41;;;;;;;4.32;2.38;;;;;;;;;;4969941;28;20134;-75
2024/03/28 08:55:10;;;;;;;3.60;2.00;;;;;;;;;;4970831;28;20030;-75
2024/03/28 08:57:37;;;;;;;3.22;2.13;;;;;;;;;;4951395;28;20031;-75
2024/03/28 09:00:10;;;;;;;3.13;1.92;;;;;;;;;;4963655;28;20051;-75
2024/03/28 09:02:35;;;;;;;3.72;2.17;;;;;;;;;;4960671;28;20034;-76
2024/03/28 09:05:01;;;;;;;4.93;1.90;;;;;;;;;;4959621;28;20058;-75
2024/03/28 09:07:26;;;;;;;4.72;2.33;;;;;;;;;;4963941;28;20408;-75
2024/03/28 09:09:52;;;;;;;3.67;2.05;;;;;;;;;;4959126;28;20057;-75
2024/03/28 09:12:17;;;;;;;4.50;2.20;;;;;;;;;;4965110;28;20051;-76
2024/03/28 09:14:43;;;;;;;4.50;2.33;;;;;;;;;;4943295;28;20793;-76
2024/03/28 09:17:08;;;;;;;4.18;1.90;;;;;;;;;;4961184;28;20022;-76
2024/03/28 09:19:34;;;;;;;4.00;1.70;;;;;;;;;;4957496;28;20113;-76
2024/03/28 09:21:59;;;;;;;5.75;2.22;;;;;;;;;;4949374;28;20050;-76
2024/03/28 09:24:26;;;;;;;5.18;1.88;;;;;;;;;;4950826;28;20126;-76
2024/03/28 09:26:52;;;;;;;4.47;2.10;;;;;;;;;;4958481;28;20109;-77
2024/03/28 09:29:20;;;;;;;4.28;2.05;;;;;;;;;;4964399;28;20046;-75
2024/03/28 09:31:48;;;;;;;3.53;1.90;;;;;;;;;;4972243;28;20081;-81
2024/03/28 09:34:14;;;;;;;5.25;2.00;;;;;;;;;;4946517;29;20023;-76
2024/03/28 09:36:41;;;;;;;8.57;1.92;;;;;;;;;;4967327;28;20061;-75
2024/03/28 09:39:06;;;;;;;5.90;1.83;;;;;;;;;;4964956;28;20019;-76
2024/03/28 09:41:32;;;;;;;3.15;1.70;;;;;;;;;;4966739;28;20023;-77
2024/03/28 09:43:59;;;;;;;3.10;1.88;;;;;;;;;;4947604;28;20041;-76
2024/03/28 09:46:25;;;;;;;4.03;1.83;;;;;;;;;;4954607;28;20126;-77
2024/03/28 09:48:51;;;;;;;5.05;1.98;;;;;;;;;;4969407;28;20058;-76
2024/03/28 09:51:16;;;;;;;4.93;1.90;;;;;;;;;;4962555;28;20023;-76
2024/03/28 09:53:41;;;;;;;6.47;1.60;;;;;;;;;;4967210;28;20513;-76
2024/03/28 09:56:07;;;;;;;4.60;1.90;;;;;;;;;;4953748;28;20023;-76
2024/03/28 09:58:34;;;;;;;4.90;1.85;;;;;;;;;;4938277;28;20034;-77
2024/03/28 10:00:59;;;;;;;4.32;1.73;;;;;;;;;;4954377;28;20129;-76
2024/03/28 10:03:34;;;;;;;4.03;1.88;;;;;;;;;;4966386;28;20042;-76
2024/03/28 10:05:59;;;;;;;5.07;1.90;;;;;;;;;;4967441;28;20038;-76
2024/03/28 10:08:25;;;;;;;3.90;1.55;;;;;;;;;;4963077;28;20057;-76
2024/03/28 10:10:50;;;;;;;4.55;1.60;;;;;;;;;;4971404;28;20054;-77
2024/03/28 10:13:16;;;;;;;4.18;1.50;;;;;;;;;;4941705;28;20448;-76
2024/03/28 10:15:41;;;;;;;4.93;1.80;;;;;;;;;;4961787;28;20035;-77
2024/03/28 10:18:06;;;;;;;4.85;1.70;;;;;;;;;;4952530;28;20043;-76
2024/03/28 10:20:32;;;;;;;4.90;1.48;;;;;;;;;;4966415;28;20069;-76
2024/03/28 10:22:58;;;;;;;6.28;1.75;;;;;;;;;;4962788;28;20035;-76
2024/03/28 10:25:23;;;;;;;4.75;1.55;;;;;;;;;;4946722;28;20062;-76
2024/03/28 10:27:49;;;;;;;6.07;1.60;;;;;;;;;;4957183;28;20039;-76
2024/03/28 10:30:21;;;;;;;5.38;1.60;;;;;;;;;;4942841;28;20480;-76
2024/03/28 10:32:46;;;;;;;5.03;1.50;;;;;;;;;;4951405;28;20042;-76
2024/03/28 10:35:12;;;;;;;8.40;1.80;;;;;;;;;;4963834;28;20039;-80
2024/03/28 10:37:37;;;;;;;5.80;1.75;;;;;;;;;;4961381;28;20129;-75
2024/03/28 10:40:03;;;;;;;4.72;1.63;;;;;;;;;;4950480;28;20523;-75
2024/03/28 10:42:29;;;;;;;3.25;1.67;;;;;;;;;;4952843;28;20582;-75
2024/03/28 10:44:59;;;;;;;5.38;1.73;;;;;;;;;;4965632;28;20030;-76
2024/03/28 10:47:24;;;;;;;3.38;1.25;;;;;;;;;;4947076;28;20847;-76
2024/03/28 10:49:50;;;;;;;4.10;1.67;;;;;;;;;;4953750;28;20134;-75
2024/03/28 10:52:19;;;;;;;4.47;1.60;;;;;;;;;;4965769;28;20125;-75
2024/03/28 10:54:47;;;;;;;4.70;1.55;;;;;;;;;;4965311;28;20033;-76
2024/03/28 10:57:13;;;;;;;3.15;1.40;;;;;;;;;;4944024;28;20031;-75
2024/03/28 10:59:39;;;;;;;4.53;1.40;;;;;;;;;;4950305;28;20134;-75
2024/03/28 11:02:05;;;;;;;3.85;1.45;;;;;;;;;;4945241;28;20114;-75
2024/03/28 11:04:30;;;;;;;4.45;1.45;;;;;;;;;;4969657;28;20095;-76
2024/03/28 11:06:55;;;;;;;5.45;1.67;;;;;;;;;;4967743;28;20035;-75
2024/03/28 11:09:23;;;;;;;3.53;1.58;;;;;;;;;;4963012;28;20166;-76
2024/03/28 11:11:50;;;;;;;3.80;1.30;;;;;;;;;;4955340;28;20189;-75
2024/03/28 11:14:15;;;;;;;4.30;1.40;;;;;;;;;;4939338;28;20054;-76
2024/03/28 11:16:41;;;;;;;3.22;1.40;;;;;;;;;;4957263;28;20022;-76
2024/03/28 11:19:06;;;;;;;4.13;1.35;;;;;;;;;;4959691;28;20066;-76
2024/03/28 11:21:34;;;;;;;5.30;1.85;;;;;;;;;;4939584;28;20043;-76
2024/03/28 11:24:00;;;;;;;4.03;1.40;;;;;;;;;;4940367;28;20082;-76
2024/03/28 11:26:26;;;;;;;3.92;1.42;;;;;;;;;;4940167;28;20078;-76
2024/03/28 11:29:01;;;;;;;5.30;1.70;;;;;;;;;;4940708;28;20076;-76
2024/03/28 11:31:27;;;;;;;3.55;1.40;;;;;;;;;;4941813;28;20053;-76
2024/03/28 11:33:59;;;;;;;4.20;1.33;;;;;;;;;;4940753;28;20944;-76
2024/03/28 11:36:28;;;;;;;3.85;1.33;;;;;;;;;;4957687;28;20034;-76
2024/03/28 11:38:54;;;;;;;5.55;1.60;;;;;;;;;;4957551;28;20035;-76
2024/03/28 11:41:20;;;;;;;2.83;1.30;;;;;;;;;;4941791;28;20035;-76
2024/03/28 11:43:45;;;;;;;3.15;1.25;;;;;;;;;;4959754;28;20034;-75
2024/03/28 11:46:11;;;;;;;4.55;1.23;;;;;;;;;;4956982;28;20038;-75
2024/03/28 11:48:36;;;;;;;4.68;1.35;;;;;;;;;;4962086;28;20508;-75
2024/03/28 11:51:05;;;;;;;7.03;1.42;;;;;;;;;;4956789;28;20205;-75
2024/03/28 11:53:32;;;;;;;4.57;1.60;;;;;;;;;;4937902;28;20043;-75
2024/03/28 11:55:57;;;;;;;9.35;1.50;;;;;;;;;;4939664;28;20063;-74
2024/03/28 11:58:29;;;;;;;10.23;2.10;;;;;;;;;;4938571;28;20074;-75
2024/03/28 12:00:57;;;;;;;9.63;1.63;;;;;;;;;;4956307;28;20036;-75
2024/03/28 12:03:23;;;;;;;6.63;0.98;;;;;;;;;;4960691;28;20767;-75
2024/03/28 12:05:48;;;;;;;8.55;1.30;;;;;;;;;;4957570;28;20043;-74
2024/03/28 12:08:14;;;;;;;8.98;1.33;;;;;;;;;;4935169;28;20051;-74
2024/03/28 12:10:39;;;;;;;10.95;2.00;;;;;;;;;;4935738;28;20050;-74
2024/03/28 12:13:07;;;;;;;13.52;1.92;;;;;;;;;;4956807;28;20423;-75
2024/03/28 12:15:32;;;;;;;12.40;1.63;;;;;;;;;;4955906;28;20039;-74
2024/03/28 12:17:59;;;;;;;8.60;1.83;;;;;;;;;;4958194;28;20049;-74
2024/03/28 12:20:24;;;;;;;7.22;1.25;;;;;;;;;;4938681;28;20050;-74
2024/03/28 12:22:57;;;;;;;9.38;1.65;;;;;;;;;;4935895;28;20509;-74
2024/03/28 12:25:23;;;;;;;7.00;1.17;;;;;;;;;;4930475;29;20051;-74
2024/03/28 12:27:58;;;;;;;7.20;1.23;;;;;;;;;;4943899;29;20050;-74
2024/03/28 12:30:23;;;;;;;8.30;1.35;;;;;;;;;;4957247;28;20043;-74
2024/03/28 12:32:57;;;;;;;7.75;1.52;;;;;;;;;;4960021;28;20538;-73
2024/03/28 12:35:26;;;;;;;7.35;1.20;;;;;;;;;;4959115;28;20031;-73
2024/03/28 12:37:51;;;;;;;6.28;1.40;;;;;;;;;;4945609;28;20027;-74
2024/03/28 12:40:18;;;;;;;10.05;1.48;;;;;;;;;;4964109;28;20082;-73
2024/03/28 12:42:44;;;;;;;8.70;1.35;;;;;;;;;;4964792;28;20078;-74
2024/03/28 12:45:10;;;;;;;11.23;1.60;;;;;;;;;;4939885;28;20487;-74
2024/03/28 12:47:35;;;;;;;9.13;1.10;;;;;;;;;;4971790;28;20023;-73
2024/03/28 12:50:01;;;;;;;6.38;1.13;;;;;;;;;;4947536;28;20384;-73
2024/03/28 12:52:27;;;;;;;7.40;1.00;;;;;;;;;;4967397;28;20018;-74
2024/03/28 12:54:53;;;;;;;4.80;1.15;;;;;;;;;;4974773;28;20031;-74
2024/03/28 12:57:19;;;;;;;9.32;1.50;;;;;;;;;;4952468;28;20041;-73
2024/03/28 12:59:44;;;;;;;6.85;1.60;;;;;;;;;;4950550;28;20031;-74
2024/03/28 13:02:09;;;;;;;10.95;1.80;;;;;;;;;;4969835;28;20137;-74
2024/03/28 13:04:35;;;;;;;8.27;1.08;;;;;;;;;;4972274;28;20036;-73
2024/03/28 13:07:00;;;;;;;8.70;1.30;;;;;;;;;;4968195;28;20022;-73
2024/03/28 13:09:25;;;;;;;8.13;1.20;;;;;;;;;;4969395;28;20092;-74
2024/03/28 13:11:51;;;;;;;9.65;1.40;;;;;;;;;;4966376;28;20135;-75
2024/03/28 13:14:16;;;;;;;8.15;1.52;;;;;;;;;;4949376;28;20169;-74
2024/03/28 13:16:43;;;;;;;8.20;1.23;;;;;;;;;;4971011;28;20420;-74
2024/03/28 13:19:09;;;;;;;10.45;1.40;;;;;;;;;;4969321;28;20091;-75
2024/03/28 13:21:35;;;;;;;6.72;0.95;;;;;;;;;;4954376;28;20086;-74
2024/03/28 13:24:00;;;;;;;8.52;1.20;;;;;;;;;;4961934;28;20063;-75
2024/03/28 13:26:26;;;;;;;10.27;1.58;;;;;;;;;;4968463;28;20046;-74
2024/03/28 13:28:51;;;;;;;6.72;1.17;;;;;;;;;;4965617;28;20058;-74
2024/03/28 13:31:16;;;;;;;4.30;0.95;;;;;;;;;;4966815;28;20141;-74
2024/03/28 13:33:42;;;;;;;5.60;1.08;;;;;;;;;;4947267;28;20087;-75
2024/03/28 13:36:10;;;;;;;8.13;1.10;;;;;;;;;;4970153;28;20039;-74
2024/03/28 13:38:35;;;;;;;11.10;1.33;;;;;;;;;;4952649;28;20042;-74
2024/03/28 13:41:01;;;;;;;5.32;0.88;;;;;;;;;;4967591;28;20043;-74
2024/03/28 13:43:28;;;;;;;7.13;1.20;;;;;;;;;;4978940;28;20054;-73
2024/03/28 13:45:54;;;;;;;6.63;1.30;;;;;;;;;;4980455;28;20047;-75
2024/03/28 13:48:44;;;;;;;8.85;1.20;;;;;;;;;;4980202;28;20061;-74
2024/03/28 13:51:09;;;;;;;;;;;;;;;;;;4990875;28;20043;-73
2024/03/28 13:53:58;;;;;;;9.23;1.27;;;;;;;;;;4987061;28;19902;-73
2024/03/28 13:56:25;;;;;;;11.05;1.33;;;;;;;;;;4957102;28;20050;-74
2024/03/28 13:58:51;;;;;;;7.50;1.00;;;;;;;;;;4943319;29;20086;-75
2024/03/28 14:01:16;;;;;;;6.32;1.10;;;;;;;;;;4926589;29;20106;-74
2024/03/28 14:03:41;;;;;;;5.30;0.88;;;;;;;;;;4936305;29;20039;-75
2024/03/28 14:06:07;;;;;;;7.40;1.08;;;;;;;;;;4938980;29;20045;-74
2024/03/28 14:08:32;;;;;;;5.25;0.70;;;;;;;;;;4939837;29;20055;-74
2024/03/28 14:10:57;;;;;;;6.93;0.80;;;;;;;;;;4940754;29;20043;-74
2024/03/28 14:13:23;;;;;;;8.35;0.90;;;;;;;;;;4938191;29;20054;-74
2024/03/28 14:15:48;;;;;;;5.28;0.73;;;;;;;;;;4922235;29;20042;-74
2024/03/28 14:18:13;;;;;;;8.20;1.10;;;;;;;;;;4939954;28;20036;-74
2024/03/28 14:20:39;;;;;;;8.38;1.20;;;;;;;;;;4926586;29;20078;-74
2024/03/28 14:23:04;;;;;;;9.25;1.00;;;;;;;;;;4923993;29;20065;-75
2024/03/28 14:25:30;;;;;;;9.57;1.77;;;;;;;;;;4927694;29;20171;-75
2024/03/28 14:27:55;;;;;;;10.33;1.17;;;;;;;;;;4955628;28;20047;-75
2024/03/28 14:30:20;;;;;;;14.55;1.52;;;;;;;;;;4944375;28;20284;-75
2024/03/28 14:32:46;;;;;;;9.45;0.90;;;;;;;;;;4948036;28;20044;-75
2024/03/28 14:35:13;;;;;;;8.95;1.10;;;;;;;;;;4957821;29;20126;-75
2024/03/28 14:37:59;;;;;;;7.43;1.17;;;;;;;;;;4971801;28;20046;-73
2024/03/28 14:40:41;;;;;;;7.38;1.15;;;;;;;;;;4994024;28;20058;-73